sensor_id;sensor_type;location;lat;lon;timestamp;temperature;humidity
18454;DHT22;9356;52.202;20.950;2022-07-23T00:00:51;26.00;61.60
18454;DHT22;9356;52.202;20.950;2022-07-23T00:02:03;26.00;61.80
18454;DHT22;9356;52.202;20.950;2022-07-23T00:03:07;26.10;62.20
18454;DHT22;9356;52.202;20.950;2022-07-23T00:04:17;26.00;61.60
18454;DHT22;9356;52.202;20.950;2022-07-23T00:05:21;26.00;61.90
18454;DHT22;9356;52.202;20.950;2022-07-23T00:06:27;26.00;61.60
18454;DHT22;9356;52.202;20.950;2022-07-23T00:07:35;26.00;61.70
18454;DHT22;9356;52.202;20.950;2022-07-23T00:08:41;26.00;61.80
18454;DHT22;9356;52.202;20.950;2022-07-23T00:09:51;26.00;62.20
18454;DHT22;9356;52.202;20.950;2022-07-23T00:11:03;25.90;61.80
18454;DHT22;9356;52.202;20.950;2022-07-23T00:12:06;25.90;62.00
18454;DHT22;9356;52.202;20.950;2022-07-23T00:13:12;25.90;62.00
18454;DHT22;9356;52.202;20.950;2022-07-23T00:14:22;25.90;62.20
18454;DHT22;9356;52.202;20.950;2022-07-23T00:15:30;25.90;62.20
18454;DHT22;9356;52.202;20.950;2022-07-23T00:16:38;25.90;62.30
18454;DHT22;9356;52.202;20.950;2022-07-23T00:17:48;25.90;62.70
18454;DHT22;9356;52.202;20.950;2022-07-23T00:18:52;25.90;62.80
18454;DHT22;9356;52.202;20.950;2022-07-23T00:19:56;25.90;62.40
18454;DHT22;9356;52.202;20.950;2022-07-23T00:21:04;25.90;62.80
18454;DHT22;9356;52.202;20.950;2022-07-23T00:22:08;25.90;62.70
18454;DHT22;9356;52.202;20.950;2022-07-23T00:23:11;25.90;62.60
18454;DHT22;9356;52.202;20.950;2022-07-23T00:24:16;25.90;62.50
18454;DHT22;9356;52.202;20.950;2022-07-23T00:25:19;25.90;62.50
18454;DHT22;9356;52.202;20.950;2022-07-23T00:26:32;25.90;62.80
18454;DHT22;9356;52.202;20.950;2022-07-23T00:27:42;25.90;62.80
18454;DHT22;9356;52.202;20.950;2022-07-23T00:28:49;27.70;64.40
18454;DHT22;9356;52.202;20.950;2022-07-23T00:29:55;25.90;63.50
18454;DHT22;9356;52.202;20.950;2022-07-23T00:30:59;26.00;63.40
18454;DHT22;9356;52.202;20.950;2022-07-23T00:32:07;25.90;62.90
18454;DHT22;9356;52.202;20.950;2022-07-23T00:33:13;25.90;62.80
18454;DHT22;9356;52.202;20.950;2022-07-23T00:34:17;25.90;63.10
18454;DHT22;9356;52.202;20.950;2022-07-23T00:35:24;25.90;63.60
18454;DHT22;9356;52.202;20.950;2022-07-23T00:36:34;25.90;63.40
18454;DHT22;9356;52.202;20.950;2022-07-23T00:37:41;28.80;65.70
18454;DHT22;9356;52.202;20.950;2022-07-23T00:38:45;25.80;63.60
18454;DHT22;9356;52.202;20.950;2022-07-23T00:39:56;25.70;63.70
18454;DHT22;9356;52.202;20.950;2022-07-23T00:41:01;25.70;63.90
18454;DHT22;9356;52.202;20.950;2022-07-23T00:42:10;25.70;63.60
18454;DHT22;9356;52.202;20.950;2022-07-23T00:43:18;25.70;64.00
18454;DHT22;9356;52.202;20.950;2022-07-23T00:44:28;25.50;63.90
18454;DHT22;9356;52.202;20.950;2022-07-23T00:45:34;25.60;64.30
18454;DHT22;9356;52.202;20.950;2022-07-23T00:46:37;25.60;64.30
18454;DHT22;9356;52.202;20.950;2022-07-23T00:47:44;25.60;64.20
18454;DHT22;9356;52.202;20.950;2022-07-23T00:48:53;25.50;64.20
18454;DHT22;9356;52.202;20.950;2022-07-23T00:50:02;25.40;63.80
18454;DHT22;9356;52.202;20.950;2022-07-23T00:51:08;25.50;64.10
18454;DHT22;9356;52.202;20.950;2022-07-23T00:52:17;25.50;63.90
18454;DHT22;9356;52.202;20.950;2022-07-23T00:53:21;25.40;63.50
18454;DHT22;9356;52.202;20.950;2022-07-23T00:54:29;25.40;63.60
18454;DHT22;9356;52.202;20.950;2022-07-23T00:55:39;25.40;63.20
18454;DHT22;9356;52.202;20.950;2022-07-23T00:57:08;25.50;63.80
18454;DHT22;9356;52.202;20.950;2022-07-23T00:58:16;25.40;63.50
18454;DHT22;9356;52.202;20.950;2022-07-23T00:59:21;25.50;64.20
18454;DHT22;9356;52.202;20.950;2022-07-23T01:00:40;25.50;63.60
18454;DHT22;9356;52.202;20.950;2022-07-23T01:01:45;25.40;63.70
18454;DHT22;9356;52.202;20.950;2022-07-23T01:02:56;25.40;64.00
18454;DHT22;9356;52.202;20.950;2022-07-23T01:04:06;25.40;64.10
18454;DHT22;9356;52.202;20.950;2022-07-23T01:05:12;25.40;64.60
18454;DHT22;9356;52.202;20.950;2022-07-23T01:06:20;25.40;64.30
18454;DHT22;9356;52.202;20.950;2022-07-23T01:07:28;25.30;64.30
18454;DHT22;9356;52.202;20.950;2022-07-23T01:08:34;26.40;65.40
18454;DHT22;9356;52.202;20.950;2022-07-23T01:09:38;25.30;64.70
18454;DHT22;9356;52.202;20.950;2022-07-23T01:10:46;25.30;65.60
18454;DHT22;9356;52.202;20.950;2022-07-23T01:11:51;25.40;65.10
18454;DHT22;9356;52.202;20.950;2022-07-23T01:13:05;25.30;65.00
18454;DHT22;9356;52.202;20.950;2022-07-23T01:14:17;25.30;65.20
18454;DHT22;9356;52.202;20.950;2022-07-23T01:15:24;25.20;65.00
18454;DHT22;9356;52.202;20.950;2022-07-23T01:16:30;25.20;64.70
18454;DHT22;9356;52.202;20.950;2022-07-23T01:17:37;25.20;64.90
18454;DHT22;9356;52.202;20.950;2022-07-23T01:18:41;25.20;64.80
18454;DHT22;9356;52.202;20.950;2022-07-23T01:19:48;25.20;64.70
18454;DHT22;9356;52.202;20.950;2022-07-23T01:20:58;25.20;65.00
18454;DHT22;9356;52.202;20.950;2022-07-23T01:22:05;25.20;65.30
18454;DHT22;9356;52.202;20.950;2022-07-23T01:23:11;25.20;65.60
18454;DHT22;9356;52.202;20.950;2022-07-23T01:24:24;25.10;66.20
18454;DHT22;9356;52.202;20.950;2022-07-23T01:25:48;25.10;65.50
18454;DHT22;9356;52.202;20.950;2022-07-23T01:26:57;25.10;65.80
18454;DHT22;9356;52.202;20.950;2022-07-23T01:28:01;25.10;65.70
18454;DHT22;9356;52.202;20.950;2022-07-23T01:29:08;25.00;66.00
18454;DHT22;9356;52.202;20.950;2022-07-23T01:30:11;25.10;66.00
18454;DHT22;9356;52.202;20.950;2022-07-23T01:31:17;25.10;66.10
18454;DHT22;9356;52.202;20.950;2022-07-23T01:32:23;25.10;66.00
18454;DHT22;9356;52.202;20.950;2022-07-23T01:33:29;25.20;65.60
18454;DHT22;9356;52.202;20.950;2022-07-23T01:34:33;25.10;65.50
18454;DHT22;9356;52.202;20.950;2022-07-23T01:35:39;25.10;65.40
18454;DHT22;9356;52.202;20.950;2022-07-23T01:36:46;25.10;65.30
18454;DHT22;9356;52.202;20.950;2022-07-23T01:37:51;25.10;65.60
18454;DHT22;9356;52.202;20.950;2022-07-23T01:39:01;25.10;65.50
18454;DHT22;9356;52.202;20.950;2022-07-23T01:40:09;25.10;65.20
18454;DHT22;9356;52.202;20.950;2022-07-23T01:41:17;25.10;65.40
18454;DHT22;9356;52.202;20.950;2022-07-23T01:42:21;25.10;65.00
18454;DHT22;9356;52.202;20.950;2022-07-23T01:43:28;25.20;64.90
18454;DHT22;9356;52.202;20.950;2022-07-23T01:44:31;25.10;65.20
18454;DHT22;9356;52.202;20.950;2022-07-23T01:45:46;25.10;65.10
18454;DHT22;9356;52.202;20.950;2022-07-23T01:46:50;25.20;65.40
18454;DHT22;9356;52.202;20.950;2022-07-23T01:47:58;25.10;65.10
18454;DHT22;9356;52.202;20.950;2022-07-23T01:49:04;25.10;65.00
18454;DHT22;9356;52.202;20.950;2022-07-23T01:50:21;25.10;65.10
18454;DHT22;9356;52.202;20.950;2022-07-23T01:51:38;25.10;65.30
18454;DHT22;9356;52.202;20.950;2022-07-23T01:53:16;25.00;65.30
18454;DHT22;9356;52.202;20.950;2022-07-23T01:54:29;25.00;65.40
18454;DHT22;9356;52.202;20.950;2022-07-23T01:55:33;25.10;65.30
18454;DHT22;9356;52.202;20.950;2022-07-23T01:56:41;25.10;65.20
18454;DHT22;9356;52.202;20.950;2022-07-23T01:57:45;25.10;65.10
18454;DHT22;9356;52.202;20.950;2022-07-23T01:58:55;25.10;65.30
18454;DHT22;9356;52.202;20.950;2022-07-23T02:00:00;25.10;65.30
18454;DHT22;9356;52.202;20.950;2022-07-23T02:01:14;25.10;65.20
18454;DHT22;9356;52.202;20.950;2022-07-23T02:02:19;25.10;65.30
18454;DHT22;9356;52.202;20.950;2022-07-23T02:03:27;25.10;65.20
18454;DHT22;9356;52.202;20.950;2022-07-23T02:04:31;25.10;65.10
18454;DHT22;9356;52.202;20.950;2022-07-23T02:05:40;25.10;65.40
18454;DHT22;9356;52.202;20.950;2022-07-23T02:06:45;25.10;65.20
18454;DHT22;9356;52.202;20.950;2022-07-23T02:08:01;25.10;65.30
18454;DHT22;9356;52.202;20.950;2022-07-23T02:09:09;23.80;64.20
18454;DHT22;9356;52.202;20.950;2022-07-23T02:10:19;25.10;65.10
18454;DHT22;9356;52.202;20.950;2022-07-23T02:11:27;25.10;64.90
18454;DHT22;9356;52.202;20.950;2022-07-23T02:12:32;25.10;65.20
18454;DHT22;9356;52.202;20.950;2022-07-23T02:13:40;25.10;65.40
18454;DHT22;9356;52.202;20.950;2022-07-23T02:14:44;25.10;65.10
18454;DHT22;9356;52.202;20.950;2022-07-23T02:15:52;25.10;65.40
18454;DHT22;9356;52.202;20.950;2022-07-23T02:16:57;25.00;65.50
18454;DHT22;9356;52.202;20.950;2022-07-23T02:18:02;25.00;65.90
18454;DHT22;9356;52.202;20.950;2022-07-23T02:19:08;25.00;65.80
18454;DHT22;9356;52.202;20.950;2022-07-23T02:20:13;25.00;66.00
18454;DHT22;9356;52.202;20.950;2022-07-23T02:21:18;24.90;66.00
18454;DHT22;9356;52.202;20.950;2022-07-23T02:22:35;24.90;65.80
18454;DHT22;9356;52.202;20.950;2022-07-23T02:23:38;25.00;65.80
18454;DHT22;9356;52.202;20.950;2022-07-23T02:24:43;25.00;65.90
18454;DHT22;9356;52.202;20.950;2022-07-23T02:25:54;24.90;66.00
18454;DHT22;9356;52.202;20.950;2022-07-23T02:26:58;24.90;66.00
18454;DHT22;9356;52.202;20.950;2022-07-23T02:28:04;24.90;66.00
18454;DHT22;9356;52.202;20.950;2022-07-23T02:29:12;24.90;66.20
18454;DHT22;9356;52.202;20.950;2022-07-23T02:30:19;24.90;66.10
18454;DHT22;9356;52.202;20.950;2022-07-23T02:31:22;24.80;65.90
18454;DHT22;9356;52.202;20.950;2022-07-23T02:32:31;24.90;66.00
18454;DHT22;9356;52.202;20.950;2022-07-23T02:33:37;24.90;65.90
18454;DHT22;9356;52.202;20.950;2022-07-23T02:34:45;24.90;65.90
18454;DHT22;9356;52.202;20.950;2022-07-23T02:35:51;24.90;65.70
18454;DHT22;9356;52.202;20.950;2022-07-23T02:36:56;24.90;65.80
18454;DHT22;9356;52.202;20.950;2022-07-23T02:38:03;24.90;66.10
18454;DHT22;9356;52.202;20.950;2022-07-23T02:39:08;24.90;66.20
18454;DHT22;9356;52.202;20.950;2022-07-23T02:40:19;24.80;66.20
18454;DHT22;9356;52.202;20.950;2022-07-23T02:41:38;24.90;66.30
18454;DHT22;9356;52.202;20.950;2022-07-23T02:42:42;24.90;66.40
18454;DHT22;9356;52.202;20.950;2022-07-23T02:43:52;24.90;66.50
18454;DHT22;9356;52.202;20.950;2022-07-23T02:44:57;24.90;66.40
18454;DHT22;9356;52.202;20.950;2022-07-23T02:46:02;24.90;66.70
18454;DHT22;9356;52.202;20.950;2022-07-23T02:47:08;24.90;66.60
18454;DHT22;9356;52.202;20.950;2022-07-23T02:48:14;24.90;66.60
18454;DHT22;9356;52.202;20.950;2022-07-23T02:49:20;24.90;66.40
18454;DHT22;9356;52.202;20.950;2022-07-23T02:50:29;24.90;66.50
18454;DHT22;9356;52.202;20.950;2022-07-23T02:51:35;24.90;66.30
18454;DHT22;9356;52.202;20.950;2022-07-23T02:52:42;24.90;67.20
18454;DHT22;9356;52.202;20.950;2022-07-23T02:53:53;24.90;66.70
18454;DHT22;9356;52.202;20.950;2022-07-23T02:54:59;24.90;66.90
18454;DHT22;9356;52.202;20.950;2022-07-23T02:56:03;24.90;66.70
18454;DHT22;9356;52.202;20.950;2022-07-23T02:57:12;24.80;66.80
18454;DHT22;9356;52.202;20.950;2022-07-23T02:58:18;24.90;67.30
18454;DHT22;9356;52.202;20.950;2022-07-23T02:59:24;24.80;66.80
18454;DHT22;9356;52.202;20.950;2022-07-23T03:00:30;24.80;67.00
18454;DHT22;9356;52.202;20.950;2022-07-23T03:01:38;24.80;67.60
18454;DHT22;9356;52.202;20.950;2022-07-23T03:02:42;24.80;66.90
18454;DHT22;9356;52.202;20.950;2022-07-23T03:03:55;25.30;67.60
18454;DHT22;9356;52.202;20.950;2022-07-23T03:05:06;24.80;66.90
18454;DHT22;9356;52.202;20.950;2022-07-23T03:06:14;24.80;67.20
18454;DHT22;9356;52.202;20.950;2022-07-23T03:07:20;24.70;67.10
18454;DHT22;9356;52.202;20.950;2022-07-23T03:08:24;24.70;67.20
18454;DHT22;9356;52.202;20.950;2022-07-23T03:09:32;24.70;67.10
18454;DHT22;9356;52.202;20.950;2022-07-23T03:10:38;24.70;67.50
18454;DHT22;9356;52.202;20.950;2022-07-23T03:11:43;24.70;67.40
18454;DHT22;9356;52.202;20.950;2022-07-23T03:12:47;24.70;67.60
18454;DHT22;9356;52.202;20.950;2022-07-23T03:13:55;24.80;67.00
18454;DHT22;9356;52.202;20.950;2022-07-23T03:15:00;24.90;67.10
18454;DHT22;9356;52.202;20.950;2022-07-23T03:16:08;25.00;66.90
18454;DHT22;9356;52.202;20.950;2022-07-23T03:17:12;25.10;66.80
18454;DHT22;9356;52.202;20.950;2022-07-23T03:18:20;25.20;67.00
18454;DHT22;9356;52.202;20.950;2022-07-23T03:19:27;25.30;67.30
18454;DHT22;9356;52.202;20.950;2022-07-23T03:20:36;25.30;66.50
18454;DHT22;9356;52.202;20.950;2022-07-23T03:21:46;25.50;65.90
18454;DHT22;9356;52.202;20.950;2022-07-23T03:22:54;25.60;65.60
18454;DHT22;9356;52.202;20.950;2022-07-23T03:23:59;25.70;65.50
18454;DHT22;9356;52.202;20.950;2022-07-23T03:25:08;25.80;64.80
18454;DHT22;9356;52.202;20.950;2022-07-23T03:26:19;25.90;64.40
18454;DHT22;9356;52.202;20.950;2022-07-23T03:27:28;26.10;64.20
18454;DHT22;9356;52.202;20.950;2022-07-23T03:28:33;26.20;64.00
18454;DHT22;9356;52.202;20.950;2022-07-23T03:29:41;26.30;63.80
18454;DHT22;9356;52.202;20.950;2022-07-23T03:30:44;26.50;63.50
18454;DHT22;9356;52.202;20.950;2022-07-23T03:31:50;27.70;64.10
18454;DHT22;9356;52.202;20.950;2022-07-23T03:32:58;26.70;63.00
18454;DHT22;9356;52.202;20.950;2022-07-23T03:34:07;28.20;63.90
18454;DHT22;9356;52.202;20.950;2022-07-23T03:35:10;26.90;62.50
18454;DHT22;9356;52.202;20.950;2022-07-23T03:36:28;26.90;62.20
18454;DHT22;9356;52.202;20.950;2022-07-23T03:37:35;26.90;62.10
18454;DHT22;9356;52.202;20.950;2022-07-23T03:38:39;27.00;62.00
18454;DHT22;9356;52.202;20.950;2022-07-23T03:39:47;27.00;62.10
18454;DHT22;9356;52.202;20.950;2022-07-23T03:40:51;27.00;61.80
18454;DHT22;9356;52.202;20.950;2022-07-23T03:41:59;27.00;61.60
18454;DHT22;9356;52.202;20.950;2022-07-23T03:43:07;27.10;61.80
18454;DHT22;9356;52.202;20.950;2022-07-23T03:44:12;27.00;61.90
18454;DHT22;9356;52.202;20.950;2022-07-23T03:45:17;27.00;61.80
18454;DHT22;9356;52.202;20.950;2022-07-23T03:46:23;26.90;62.00
18454;DHT22;9356;52.202;20.950;2022-07-23T03:47:27;26.90;61.70
18454;DHT22;9356;52.202;20.950;2022-07-23T03:48:32;26.90;62.10
18454;DHT22;9356;52.202;20.950;2022-07-23T03:49:37;26.80;62.10
18454;DHT22;9356;52.202;20.950;2022-07-23T03:50:40;26.80;62.20
18454;DHT22;9356;52.202;20.950;2022-07-23T03:51:45;26.80;62.40
18454;DHT22;9356;52.202;20.950;2022-07-23T03:52:52;26.80;62.50
18454;DHT22;9356;52.202;20.950;2022-07-23T03:53:57;26.80;62.50
18454;DHT22;9356;52.202;20.950;2022-07-23T03:55:01;26.80;62.50
18454;DHT22;9356;52.202;20.950;2022-07-23T03:56:08;26.60;62.30
18454;DHT22;9356;52.202;20.950;2022-07-23T03:57:12;26.80;62.50
18454;DHT22;9356;52.202;20.950;2022-07-23T03:58:20;26.80;62.60
18454;DHT22;9356;52.202;20.950;2022-07-23T03:59:29;26.80;62.40
18454;DHT22;9356;52.202;20.950;2022-07-23T04:00:34;26.90;62.60
18454;DHT22;9356;52.202;20.950;2022-07-23T04:01:38;27.70;63.10
18454;DHT22;9356;52.202;20.950;2022-07-23T04:02:45;26.90;62.30
18454;DHT22;9356;52.202;20.950;2022-07-23T04:03:53;27.00;62.10
18454;DHT22;9356;52.202;20.950;2022-07-23T04:04:58;27.10;62.10
18454;DHT22;9356;52.202;20.950;2022-07-23T04:06:02;27.10;61.80
18454;DHT22;9356;52.202;20.950;2022-07-23T04:07:15;27.20;61.30
18454;DHT22;9356;52.202;20.950;2022-07-23T04:08:21;27.20;61.70
18454;DHT22;9356;52.202;20.950;2022-07-23T04:09:37;27.30;61.60
18454;DHT22;9356;52.202;20.950;2022-07-23T04:10:46;27.30;61.40
18454;DHT22;9356;52.202;20.950;2022-07-23T04:11:53;27.30;61.10
18454;DHT22;9356;52.202;20.950;2022-07-23T04:12:58;27.40;61.20
18454;DHT22;9356;52.202;20.950;2022-07-23T04:14:05;27.50;60.90
18454;DHT22;9356;52.202;20.950;2022-07-23T04:15:10;27.50;61.40
18454;DHT22;9356;52.202;20.950;2022-07-23T04:16:14;27.60;60.90
18454;DHT22;9356;52.202;20.950;2022-07-23T04:17:20;27.60;60.60
18454;DHT22;9356;52.202;20.950;2022-07-23T04:18:27;27.70;60.70
18454;DHT22;9356;52.202;20.950;2022-07-23T04:19:37;27.70;60.50
18454;DHT22;9356;52.202;20.950;2022-07-23T04:20:45;27.70;60.40
18454;DHT22;9356;52.202;20.950;2022-07-23T04:21:51;27.80;60.50
18454;DHT22;9356;52.202;20.950;2022-07-23T04:22:55;27.80;60.40
18454;DHT22;9356;52.202;20.950;2022-07-23T04:23:59;27.90;60.20
18454;DHT22;9356;52.202;20.950;2022-07-23T04:25:09;27.90;60.20
18454;DHT22;9356;52.202;20.950;2022-07-23T04:26:14;28.00;59.50
18454;DHT22;9356;52.202;20.950;2022-07-23T04:27:21;29.50;60.70
18454;DHT22;9356;52.202;20.950;2022-07-23T04:28:24;28.10;59.70
18454;DHT22;9356;52.202;20.950;2022-07-23T04:29:37;29.30;60.70
18454;DHT22;9356;52.202;20.950;2022-07-23T04:30:48;28.20;59.60
18454;DHT22;9356;52.202;20.950;2022-07-23T04:31:56;28.20;59.40
18454;DHT22;9356;52.202;20.950;2022-07-23T04:33:01;28.30;59.40
18454;DHT22;9356;52.202;20.950;2022-07-23T04:34:03;28.30;59.80
18454;DHT22;9356;52.202;20.950;2022-07-23T04:35:11;28.40;59.20
18454;DHT22;9356;52.202;20.950;2022-07-23T04:36:14;28.50;59.40
18454;DHT22;9356;52.202;20.950;2022-07-23T04:37:18;28.50;58.80
18454;DHT22;9356;52.202;20.950;2022-07-23T04:38:24;28.60;58.80
18454;DHT22;9356;52.202;20.950;2022-07-23T04:39:35;28.70;58.70
18454;DHT22;9356;52.202;20.950;2022-07-23T04:40:41;28.70;58.60
18454;DHT22;9356;52.202;20.950;2022-07-23T04:41:46;28.80;58.40
18454;DHT22;9356;52.202;20.950;2022-07-23T04:42:50;28.90;58.50
18454;DHT22;9356;52.202;20.950;2022-07-23T04:44:00;29.00;58.50
18454;DHT22;9356;52.202;20.950;2022-07-23T04:45:06;29.00;58.70
18454;DHT22;9356;52.202;20.950;2022-07-23T04:46:22;29.00;58.10
18454;DHT22;9356;52.202;20.950;2022-07-23T04:47:30;29.10;58.00
18454;DHT22;9356;52.202;20.950;2022-07-23T04:48:38;29.10;58.30
18454;DHT22;9356;52.202;20.950;2022-07-23T04:49:45;29.20;58.10
18454;DHT22;9356;52.202;20.950;2022-07-23T04:50:57;29.30;57.90
18454;DHT22;9356;52.202;20.950;2022-07-23T04:52:10;29.30;57.90
18454;DHT22;9356;52.202;20.950;2022-07-23T04:53:17;29.40;57.80
18454;DHT22;9356;52.202;20.950;2022-07-23T04:54:23;29.40;57.80
18454;DHT22;9356;52.202;20.950;2022-07-23T04:55:29;29.50;57.40
18454;DHT22;9356;52.202;20.950;2022-07-23T04:56:34;29.50;57.60
18454;DHT22;9356;52.202;20.950;2022-07-23T04:57:42;29.60;57.50
18454;DHT22;9356;52.202;20.950;2022-07-23T04:58:48;29.70;57.40
18454;DHT22;9356;52.202;20.950;2022-07-23T04:59:54;29.80;57.10
18454;DHT22;9356;52.202;20.950;2022-07-23T05:01:05;29.90;57.20
18454;DHT22;9356;52.202;20.950;2022-07-23T05:02:16;29.90;56.70
18454;DHT22;9356;52.202;20.950;2022-07-23T05:03:20;29.90;56.30
18454;DHT22;9356;52.202;20.950;2022-07-23T05:04:25;30.00;56.90
18454;DHT22;9356;52.202;20.950;2022-07-23T05:05:29;30.00;56.70
18454;DHT22;9356;52.202;20.950;2022-07-23T05:06:44;30.10;56.60
18454;DHT22;9356;52.202;20.950;2022-07-23T05:07:48;28.80;55.70
18454;DHT22;9356;52.202;20.950;2022-07-23T05:08:54;30.30;56.20
18454;DHT22;9356;52.202;20.950;2022-07-23T05:09:59;30.40;56.40
18454;DHT22;9356;52.202;20.950;2022-07-23T05:11:05;30.50;56.30
18454;DHT22;9356;52.202;20.950;2022-07-23T05:12:13;30.60;56.20
18454;DHT22;9356;52.202;20.950;2022-07-23T05:13:21;30.70;56.70
18454;DHT22;9356;52.202;20.950;2022-07-23T05:14:29;31.50;57.00
18454;DHT22;9356;52.202;20.950;2022-07-23T05:15:34;30.90;56.40
18454;DHT22;9356;52.202;20.950;2022-07-23T05:16:39;30.90;56.40
18454;DHT22;9356;52.202;20.950;2022-07-23T05:17:53;31.00;55.70
18454;DHT22;9356;52.202;20.950;2022-07-23T05:19:01;31.10;55.40
18454;DHT22;9356;52.202;20.950;2022-07-23T05:20:11;31.20;55.70
18454;DHT22;9356;52.202;20.950;2022-07-23T05:21:18;31.20;55.60
18454;DHT22;9356;52.202;20.950;2022-07-23T05:22:35;31.30;54.40
18454;DHT22;9356;52.202;20.950;2022-07-23T05:23:38;31.40;54.90
18454;DHT22;9356;52.202;20.950;2022-07-23T05:24:46;31.30;54.50
18454;DHT22;9356;52.202;20.950;2022-07-23T05:25:50;31.40;54.60
18454;DHT22;9356;52.202;20.950;2022-07-23T05:27:07;31.40;55.00
18454;DHT22;9356;52.202;20.950;2022-07-23T05:28:11;31.40;54.80
18454;DHT22;9356;52.202;20.950;2022-07-23T05:29:15;31.50;54.20
18454;DHT22;9356;52.202;20.950;2022-07-23T05:30:20;31.50;54.50
18454;DHT22;9356;52.202;20.950;2022-07-23T05:31:31;31.50;54.30
18454;DHT22;9356;52.202;20.950;2022-07-23T05:32:34;32.20;54.80
18454;DHT22;9356;52.202;20.950;2022-07-23T05:33:48;31.60;54.60
18454;DHT22;9356;52.202;20.950;2022-07-23T05:34:55;31.60;54.60
18454;DHT22;9356;52.202;20.950;2022-07-23T05:36:03;31.70;53.90
18454;DHT22;9356;52.202;20.950;2022-07-23T05:37:22;31.70;54.40
18454;DHT22;9356;52.202;20.950;2022-07-23T05:38:31;31.70;54.70
18454;DHT22;9356;52.202;20.950;2022-07-23T05:39:37;31.80;54.10
18454;DHT22;9356;52.202;20.950;2022-07-23T05:40:44;31.80;53.80
18454;DHT22;9356;52.202;20.950;2022-07-23T05:41:52;31.90;54.10
18454;DHT22;9356;52.202;20.950;2022-07-23T05:43:04;31.80;54.10
18454;DHT22;9356;52.202;20.950;2022-07-23T05:44:09;31.90;54.40
18454;DHT22;9356;52.202;20.950;2022-07-23T05:45:17;31.90;54.10
18454;DHT22;9356;52.202;20.950;2022-07-23T05:46:25;31.90;53.40
18454;DHT22;9356;52.202;20.950;2022-07-23T05:47:41;32.00;54.10
18454;DHT22;9356;52.202;20.950;2022-07-23T05:48:45;32.00;53.50
18454;DHT22;9356;52.202;20.950;2022-07-23T05:50:14;32.10;53.70
18454;DHT22;9356;52.202;20.950;2022-07-23T05:51:24;32.10;55.50
18454;DHT22;9356;52.202;20.950;2022-07-23T05:52:38;32.20;53.80
18454;DHT22;9356;52.202;20.950;2022-07-23T05:54:17;32.40;53.40
18454;DHT22;9356;52.202;20.950;2022-07-23T05:55:23;32.30;52.90
18454;DHT22;9356;52.202;20.950;2022-07-23T05:56:29;32.30;52.90
18454;DHT22;9356;52.202;20.950;2022-07-23T05:57:35;32.30;53.70
18454;DHT22;9356;52.202;20.950;2022-07-23T05:58:40;32.30;53.40
18454;DHT22;9356;52.202;20.950;2022-07-23T05:59:46;32.40;53.30
18454;DHT22;9356;52.202;20.950;2022-07-23T06:00:51;32.40;52.90
18454;DHT22;9356;52.202;20.950;2022-07-23T06:01:55;32.40;53.60
18454;DHT22;9356;52.202;20.950;2022-07-23T06:03:02;32.40;53.40
18454;DHT22;9356;52.202;20.950;2022-07-23T06:04:09;32.50;53.50
18454;DHT22;9356;52.202;20.950;2022-07-23T06:05:27;32.50;52.60
18454;DHT22;9356;52.202;20.950;2022-07-23T06:06:33;32.60;52.70
18454;DHT22;9356;52.202;20.950;2022-07-23T06:07:37;32.50;52.90
18454;DHT22;9356;52.202;20.950;2022-07-23T06:08:41;32.60;52.70
18454;DHT22;9356;52.202;20.950;2022-07-23T06:09:48;32.60;52.70
18454;DHT22;9356;52.202;20.950;2022-07-23T06:10:52;32.70;52.00
18454;DHT22;9356;52.202;20.950;2022-07-23T06:12:00;32.70;52.20
18454;DHT22;9356;52.202;20.950;2022-07-23T06:13:05;32.80;52.10
18454;DHT22;9356;52.202;20.950;2022-07-23T06:14:09;32.80;52.00
18454;DHT22;9356;52.202;20.950;2022-07-23T06:15:22;32.80;52.50
18454;DHT22;9356;52.202;20.950;2022-07-23T06:16:28;32.80;52.10
18454;DHT22;9356;52.202;20.950;2022-07-23T06:17:33;32.80;52.10
18454;DHT22;9356;52.202;20.950;2022-07-23T06:18:38;32.90;52.80
18454;DHT22;9356;52.202;20.950;2022-07-23T06:19:42;32.90;52.50
18454;DHT22;9356;52.202;20.950;2022-07-23T06:20:50;33.00;53.30
18454;DHT22;9356;52.202;20.950;2022-07-23T06:22:03;32.90;52.40
18454;DHT22;9356;52.202;20.950;2022-07-23T06:23:06;32.90;52.80
18454;DHT22;9356;52.202;20.950;2022-07-23T06:24:10;32.90;52.70
18454;DHT22;9356;52.202;20.950;2022-07-23T06:25:14;32.90;52.40
18454;DHT22;9356;52.202;20.950;2022-07-23T06:26:22;33.00;52.40
18454;DHT22;9356;52.202;20.950;2022-07-23T06:27:28;33.00;52.90
18454;DHT22;9356;52.202;20.950;2022-07-23T06:28:35;33.10;52.00
18454;DHT22;9356;52.202;20.950;2022-07-23T06:29:38;33.10;52.20
18454;DHT22;9356;52.202;20.950;2022-07-23T06:30:43;33.10;52.30
18454;DHT22;9356;52.202;20.950;2022-07-23T06:31:49;33.20;52.80
18454;DHT22;9356;52.202;20.950;2022-07-23T06:32:56;33.20;52.70
18454;DHT22;9356;52.202;20.950;2022-07-23T06:34:04;33.30;52.60
18454;DHT22;9356;52.202;20.950;2022-07-23T06:35:12;33.20;51.90
18454;DHT22;9356;52.202;20.950;2022-07-23T06:36:23;33.30;51.40
18454;DHT22;9356;52.202;20.950;2022-07-23T06:37:31;33.30;51.70
18454;DHT22;9356;52.202;20.950;2022-07-23T06:38:38;33.30;51.50
18454;DHT22;9356;52.202;20.950;2022-07-23T06:39:41;33.30;52.10
18454;DHT22;9356;52.202;20.950;2022-07-23T06:40:48;33.30;52.30
18454;DHT22;9356;52.202;20.950;2022-07-23T06:41:52;33.40;51.80
18454;DHT22;9356;52.202;20.950;2022-07-23T06:43:14;33.40;52.20
18454;DHT22;9356;52.202;20.950;2022-07-23T06:44:21;33.50;52.10
18454;DHT22;9356;52.202;20.950;2022-07-23T06:45:29;33.50;52.60
18454;DHT22;9356;52.202;20.950;2022-07-23T06:46:36;33.50;51.90
18454;DHT22;9356;52.202;20.950;2022-07-23T06:47:45;33.60;51.60
18454;DHT22;9356;52.202;20.950;2022-07-23T06:48:58;33.60;51.80
18454;DHT22;9356;52.202;20.950;2022-07-23T06:50:11;33.70;52.00
18454;DHT22;9356;52.202;20.950;2022-07-23T06:51:17;33.70;51.80
18454;DHT22;9356;52.202;20.950;2022-07-23T06:52:37;33.80;50.90
18454;DHT22;9356;52.202;20.950;2022-07-23T06:53:47;33.70;50.70
18454;DHT22;9356;52.202;20.950;2022-07-23T06:54:56;33.80;50.40
18454;DHT22;9356;52.202;20.950;2022-07-23T06:56:04;33.70;51.20
18454;DHT22;9356;52.202;20.950;2022-07-23T06:57:10;33.70;51.20
18454;DHT22;9356;52.202;20.950;2022-07-23T06:58:18;33.70;51.00
18454;DHT22;9356;52.202;20.950;2022-07-23T06:59:29;33.60;50.50
18454;DHT22;9356;52.202;20.950;2022-07-23T07:00:56;33.60;50.60
18454;DHT22;9356;52.202;20.950;2022-07-23T07:02:20;33.70;50.40
18454;DHT22;9356;52.202;20.950;2022-07-23T07:03:30;33.70;51.00
18454;DHT22;9356;52.202;20.950;2022-07-23T07:04:32;33.70;51.00
18454;DHT22;9356;52.202;20.950;2022-07-23T07:05:39;33.60;50.70
18454;DHT22;9356;52.202;20.950;2022-07-23T07:06:46;33.60;50.60
18454;DHT22;9356;52.202;20.950;2022-07-23T07:07:57;33.70;50.20